Edna Bay, Alaska
Current Conditions -  °F | °C
As of 4:53 AM on Thursday 18 Dec 2014 (Local Time) from PAKW Reporting Station
Overcast Overcast  
Wind Chill: 32°   Ceiling: 4900
Heat Index: 41°   Visibility: 10mi
Dew Point: 35°   Wind: 18mph
Humidity: 79%   Direction: 50°NE
Pressure: 29.45"   Gusts: 29mph
Location:  55.8158°N, 132.958°W
Report Text: PAKW 181353Z AUTO 05016G25KT 10SM SCT040 OVC049 05/02 A2945 RMK AO2 RAB17E28 SLP973 P0000 T00500017 TSNO
Loading
Personal Weather Stations






























Interactive Weather Map New forecast layout! Learn more

10-Day Weather Forecast

Advertisements
Track Severe Weather on mobile